Time;durP1;ratioP1;P1;durP2;ratioP2;P2;SDS_P1;SDS_P2;PMS_P1;PMS_P2;Temp;Humidity;BMP_temperature;BMP_pressure;BME280_temperature;BME280_humidity;BME280_pressure;Samples;Min_cycle;Max_cycle;Signal;HPM_P1;HPM_P2
2022/06/07 00:01:28;;;;;;;6.85;6.25;;;;;;;;;;5005517;28;20046;-69
2022/06/07 00:03:54;;;;;;;6.60;6.20;;;;;;;;;;5000493;28;20045;-68
2022/06/07 00:06:19;;;;;;;7.22;6.15;;;;;;;;;;5005300;28;20456;-68
2022/06/07 00:08:45;;;;;;;6.35;5.75;;;;;;;;;;5004145;28;20061;-69
2022/06/07 00:11:11;;;;;;;5.90;5.60;;;;;;;;;;5001425;28;20056;-69
2022/06/07 00:13:38;;;;;;;6.57;6.07;;;;;;;;;;5003772;28;20033;-69
2022/06/07 00:16:04;;;;;;;6.63;6.20;;;;;;;;;;5005816;28;20053;-69
2022/06/07 00:18:29;;;;;;;6.35;5.95;;;;;;;;;;5004213;28;20030;-68
2022/06/07 00:20:55;;;;;;;6.40;5.80;;;;;;;;;;5005201;28;20651;-68
2022/06/07 00:23:21;;;;;;;6.03;5.63;;;;;;;;;;5001549;28;20034;-69
2022/06/07 00:25:51;;;;;;;6.53;6.03;;;;;;;;;;5002922;28;20034;-68
2022/06/07 00:28:17;;;;;;;6.20;5.80;;;;;;;;;;5006563;28;20037;-68
2022/06/07 00:30:43;;;;;;;6.32;5.72;;;;;;;;;;4991858;28;20084;-69
2022/06/07 00:33:09;;;;;;;6.97;6.43;;;;;;;;;;5007004;28;20513;-69
2022/06/07 00:35:35;;;;;;;8.68;5.82;;;;;;;;;;5008747;28;21671;-69
2022/06/07 00:38:00;;;;;;;6.32;5.93;;;;;;;;;;5009061;28;20041;-68
2022/06/07 00:40:26;;;;;;;6.85;6.32;;;;;;;;;;5007866;28;20436;-68
2022/06/07 00:42:52;;;;;;;6.43;5.90;;;;;;;;;;4990020;28;20058;-68
2022/06/07 00:45:20;;;;;;;6.57;5.95;;;;;;;;;;5007801;28;20030;-68
2022/06/07 00:47:47;;;;;;;6.25;5.50;;;;;;;;;;5007690;28;20030;-68
2022/06/07 00:50:29;;;;;;;5.82;5.50;;;;;;;;;;4986662;28;20062;-69
2022/06/07 00:52:55;;;;;;;6.10;5.70;;;;;;;;;;5007647;28;20034;-69
2022/06/07 00:55:21;;;;;;;5.85;5.50;;;;;;;;;;4990655;28;20084;-69
2022/06/07 00:57:52;;;;;;;6.03;5.53;;;;;;;;;;4988824;28;20088;-68
2022/06/07 01:00:31;;;;;;;6.07;5.68;;;;;;;;;;4990200;28;20034;-68
2022/06/07 01:02:59;;;;;;;6.20;5.80;;;;;;;;;;4988244;28;20038;-68
2022/06/07 01:05:25;;;;;;;6.90;6.35;;;;;;;;;;5013388;28;20489;-69
2022/06/07 01:10:44;;;;;;;7.00;6.40;;;;;;;;;;4987363;28;20375;-68
2022/06/07 01:13:19;;;;;;;6.93;6.28;;;;;;;;;;4990230;28;20034;-68
2022/06/07 01:15:47;;;;;;;6.90;6.30;;;;;;;;;;4988960;28;20038;-68
2022/06/07 01:18:16;;;;;;;6.45;6.05;;;;;;;;;;4990084;28;20104;-68
2022/06/07 01:20:43;;;;;;;7.80;6.45;;;;;;;;;;4991153;28;20536;-69
2022/06/07 01:23:09;;;;;;;6.80;6.32;;;;;;;;;;5006543;28;20521;-68
2022/06/07 01:25:36;;;;;;;7.32;6.72;;;;;;;;;;4986038;28;20046;-68
2022/06/07 01:28:04;;;;;;;7.32;6.70;;;;;;;;;;4990240;28;20070;-68
2022/06/07 01:30:30;;;;;;;8.70;6.78;;;;;;;;;;4990141;28;20448;-68
2022/06/07 01:32:56;;;;;;;6.95;6.43;;;;;;;;;;4990364;28;20049;-68
2022/06/07 01:35:22;;;;;;;6.32;5.93;;;;;;;;;;5004162;28;20092;-68
2022/06/07 01:37:48;;;;;;;6.53;6.03;;;;;;;;;;4996927;28;20072;-68
2022/06/07 01:42:58;;;;;;;6.30;5.70;;;;;;;;;;4988306;28;20048;-68
2022/06/07 01:45:23;;;;;;;6.53;6.03;;;;;;;;;;4988511;28;20675;-68
2022/06/07 01:47:49;;;;;;;8.40;6.03;;;;;;;;;;4989606;28;20046;-68
2022/06/07 01:50:23;;;;;;;6.95;6.30;;;;;;;;;;4997998;28;20033;-68
2022/06/07 01:52:49;;;;;;;6.45;5.85;;;;;;;;;;5007525;28;20103;-68
2022/06/07 01:55:24;;;;;;;6.20;5.80;;;;;;;;;;4986491;28;20718;-68
2022/06/07 01:57:59;;;;;;;6.43;5.93;;;;;;;;;;4989496;28;20107;-68
2022/06/07 02:00:25;;;;;;;6.43;5.93;;;;;;;;;;4989778;28;20061;-68
2022/06/07 02:02:51;;;;;;;6.43;5.95;;;;;;;;;;4986356;28;20037;-68
2022/06/07 02:05:17;;;;;;;7.07;6.32;;;;;;;;;;5012038;28;20076;-68
2022/06/07 02:07:56;;;;;;;6.55;5.95;;;;;;;;;;4992585;28;20030;-68
2022/06/07 02:10:28;;;;;;;6.97;6.47;;;;;;;;;;4988996;28;20045;-68
2022/06/07 02:12:57;;;;;;;6.95;6.35;;;;;;;;;;4987913;28;20045;-69
2022/06/07 02:15:23;;;;;;;6.82;6.32;;;;;;;;;;4987062;28;20053;-68
2022/06/07 02:17:48;;;;;;;6.85;6.18;;;;;;;;;;4987572;28;20057;-68
2022/06/07 02:20:38;;;;;;;6.50;6.10;;;;;;;;;;4986885;28;20033;-68
2022/06/07 02:23:05;;;;;;;6.43;5.93;;;;;;;;;;4988907;28;20584;-68
2022/06/07 02:25:54;;;;;;;9.60;6.18;;;;;;;;;;4992978;28;20076;-68
2022/06/07 02:28:22;;;;;;;6.60;6.20;;;;;;;;;;4972937;28;20042;-68
2022/06/07 02:30:48;;;;;;;6.60;6.10;;;;;;;;;;4969596;28;20085;-68
2022/06/07 02:33:14;;;;;;;6.70;6.30;;;;;;;;;;4967730;28;20047;-68
2022/06/07 02:35:43;;;;;;;6.55;6.15;;;;;;;;;;4963021;28;20502;-67
2022/06/07 02:38:10;;;;;;;7.03;6.32;;;;;;;;;;4963241;28;20118;-69
2022/06/07 02:40:35;;;;;;;6.57;6.05;;;;;;;;;;4965385;28;20038;-69
2022/06/07 02:43:03;;;;;;;6.80;6.30;;;;;;;;;;4963961;28;20055;-68
2022/06/07 02:45:29;;;;;;;7.65;6.65;;;;;;;;;;4965086;28;20041;-68
2022/06/07 02:47:55;;;;;;;7.65;6.60;;;;;;;;;;4951325;28;20061;-68
2022/06/07 02:50:22;;;;;;;7.10;6.50;;;;;;;;;;4950371;28;20042;-68
2022/06/07 02:52:51;;;;;;;7.25;6.60;;;;;;;;;;4948458;28;20039;-68
2022/06/07 02:55:21;;;;;;;7.13;6.63;;;;;;;;;;4965667;28;20147;-67
2022/06/07 02:57:49;;;;;;;7.05;6.35;;;;;;;;;;4947739;28;20533;-68
2022/06/07 03:00:20;;;;;;;7.03;6.53;;;;;;;;;;4981850;28;20552;-68
2022/06/07 03:02:46;;;;;;;6.95;6.38;;;;;;;;;;4986583;28;20088;-68
2022/06/07 03:05:13;;;;;;;7.03;6.22;;;;;;;;;;4983521;28;20104;-68
2022/06/07 03:07:45;;;;;;;6.82;6.30;;;;;;;;;;4986680;28;20030;-68
2022/06/07 03:10:12;;;;;;;8.48;6.70;;;;;;;;;;4987322;28;20086;-68
2022/06/07 03:12:38;;;;;;;7.65;6.10;;;;;;;;;;4984116;28;20029;-68
2022/06/07 03:15:05;;;;;;;6.57;5.57;;;;;;;;;;4984592;28;20030;-68
2022/06/07 03:17:31;;;;;;;6.40;5.82;;;;;;;;;;4994130;28;20099;-68
2022/06/07 03:19:57;;;;;;;6.85;6.22;;;;;;;;;;4984775;28;20076;-68
2022/06/07 03:22:23;;;;;;;6.90;6.40;;;;;;;;;;4985848;28;20697;-68
2022/06/07 03:24:49;;;;;;;6.30;5.90;;;;;;;;;;4985135;28;20034;-68
2022/06/07 03:27:15;;;;;;;6.78;6.25;;;;;;;;;;4988336;28;20517;-68
2022/06/07 03:29:42;;;;;;;6.57;6.18;;;;;;;;;;4987582;28;20079;-68
2022/06/07 03:32:12;;;;;;;6.97;6.47;;;;;;;;;;5002093;28;20030;-68
2022/06/07 03:34:39;;;;;;;6.80;6.30;;;;;;;;;;4988956;28;20053;-68
2022/06/07 03:37:06;;;;;;;6.93;6.10;;;;;;;;;;4988301;28;20026;-68
2022/06/07 03:39:31;;;;;;;6.95;6.43;;;;;;;;;;5003514;28;20508;-68
2022/06/07 03:42:01;;;;;;;7.25;6.63;;;;;;;;;;4984765;28;20049;-68
2022/06/07 03:44:29;;;;;;;8.43;6.70;;;;;;;;;;4988101;28;20038;-68
2022/06/07 03:47:04;;;;;;;7.47;6.82;;;;;;;;;;5003845;28;20070;-68
2022/06/07 03:49:31;;;;;;;7.30;6.70;;;;;;;;;;4988654;28;20069;-68
2022/06/07 03:51:58;;;;;;;6.95;6.47;;;;;;;;;;5001870;28;20041;-68
2022/06/07 03:54:24;;;;;;;7.28;6.40;;;;;;;;;;5006083;28;20116;-68
2022/06/07 03:56:50;;;;;;;6.78;5.90;;;;;;;;;;4987673;28;20053;-68
2022/06/07 03:59:18;;;;;;;7.40;6.80;;;;;;;;;;4988540;28;20109;-68
2022/06/07 04:01:44;;;;;;;7.22;6.63;;;;;;;;;;5007495;28;20582;-68
2022/06/07 04:04:10;;;;;;;7.10;6.60;;;;;;;;;;4992197;28;20034;-68
2022/06/07 04:08:10;;;;;;;7.30;6.70;;;;;;;;;;5006902;28;20034;-68
2022/06/07 04:09:39;;;;;;;6.57;6.07;;;;;;;;;;4992624;28;20100;-68
2022/06/07 04:12:10;;;;;;;7.32;6.63;;;;;;;;;;4991025;28;20109;-68
2022/06/07 04:14:37;;;;;;;7.27;5.77;;;;;;;;;;4993373;28;20691;-68
2022/06/07 04:17:04;;;;;;;7.38;6.35;;;;;;;;;;4989758;28;20124;-68
2022/06/07 04:19:31;;;;;;;7.03;6.55;;;;;;;;;;5007061;28;20052;-68
2022/06/07 04:21:56;;;;;;;7.13;6.63;;;;;;;;;;4992129;28;20033;-68
2022/06/07 04:24:34;;;;;;;6.60;6.20;;;;;;;;;;4990024;28;20511;-68
2022/06/07 04:27:00;;;;;;;6.85;6.35;;;;;;;;;;4987851;28;20133;-68
2022/06/07 04:29:28;;;;;;;6.88;6.38;;;;;;;;;;4972750;28;20124;-68
2022/06/07 04:31:56;;;;;;;7.15;6.65;;;;;;;;;;4991702;28;20033;-68
2022/06/07 04:34:23;;;;;;;7.22;6.63;;;;;;;;;;4991398;28;20030;-68
2022/06/07 04:36:49;;;;;;;7.07;6.57;;;;;;;;;;4991881;28;20033;-68
2022/06/07 04:39:19;;;;;;;7.03;6.53;;;;;;;;;;4987758;28;20114;-68
2022/06/07 04:41:57;;;;;;;7.07;6.60;;;;;;;;;;4987609;28;20113;-68
2022/06/07 04:44:30;;;;;;;8.02;6.40;;;;;;;;;;4985703;28;20041;-68
2022/06/07 04:46:57;;;;;;;6.80;6.35;;;;;;;;;;5007344;28;20030;-68
2022/06/07 04:49:26;;;;;;;6.72;6.13;;;;;;;;;;4986832;28;20493;-69
2022/06/07 04:51:52;;;;;;;7.50;6.43;;;;;;;;;;4989797;28;20044;-68
2022/06/07 04:54:33;;;;;;;7.63;6.93;;;;;;;;;;4990159;28;20084;-68
2022/06/07 04:57:03;;;;;;;7.25;6.65;;;;;;;;;;4991118;28;20132;-68
2022/06/07 04:59:29;;;;;;;6.88;6.28;;;;;;;;;;5005713;28;20144;-68
2022/06/07 05:01:58;;;;;;;;;;;;;;;;;;4988720;28;20117;-68
2022/06/07 05:04:27;;;;;;;;;;;;;;;;;;5003440;28;19917;-68
2022/06/07 05:06:55;;;;;;;10.43;6.45;;;;;;;;;;4998631;28;20360;-68
2022/06/07 05:09:42;;;;;;;6.85;6.35;;;;;;;;;;4988816;28;20029;-68
2022/06/07 05:12:13;;;;;;;7.10;6.60;;;;;;;;;;4989218;28;20038;-68
2022/06/07 05:14:44;;;;;;;7.32;6.55;;;;;;;;;;4990778;28;20030;-68
2022/06/07 05:17:12;;;;;;;9.50;6.65;;;;;;;;;;4992208;28;20055;-69
2022/06/07 05:19:40;;;;;;;7.35;6.53;;;;;;;;;;4987437;28;20034;-69
2022/06/07 05:22:11;;;;;;;7.28;6.68;;;;;;;;;;4990466;28;20034;-69
2022/06/07 05:24:42;;;;;;;7.40;6.70;;;;;;;;;;4986313;28;20061;-69
2022/06/07 05:27:15;;;;;;;7.00;6.40;;;;;;;;;;5009039;28;20045;-69
2022/06/07 05:29:49;;;;;;;6.70;6.20;;;;;;;;;;4986502;28;20133;-69
2022/06/07 05:32:26;;;;;;;7.32;6.72;;;;;;;;;;4997113;28;20685;-69
2022/06/07 05:34:54;;;;;;;7.03;6.47;;;;;;;;;;4990710;28;20041;-69
2022/06/07 05:37:22;;;;;;;7.00;6.43;;;;;;;;;;4987594;28;20033;-69
2022/06/07 05:39:55;;;;;;;6.90;6.50;;;;;;;;;;4988657;28;20034;-69
2022/06/07 05:42:21;;;;;;;7.05;6.53;;;;;;;;;;5005976;28;20038;-69
2022/06/07 05:44:49;;;;;;;8.65;6.50;;;;;;;;;;4984789;28;20037;-68
2022/06/07 05:47:15;;;;;;;7.03;6.30;;;;;;;;;;5003569;28;20427;-69
2022/06/07 05:49:49;;;;;;;6.68;6.07;;;;;;;;;;4986901;28;20440;-69
2022/06/07 05:52:20;;;;;;;7.10;6.40;;;;;;;;;;4985045;28;20034;-69
2022/06/07 05:54:48;;;;;;;7.22;6.60;;;;;;;;;;4989246;28;20038;-69
2022/06/07 05:57:13;;;;;;;7.03;6.43;;;;;;;;;;4990443;28;20034;-69
2022/06/07 05:59:41;;;;;;;6.82;6.40;;;;;;;;;;5003363;28;20088;-69
2022/06/07 06:02:10;;;;;;;7.10;6.60;;;;;;;;;;4980984;28;20613;-69
2022/06/07 06:04:38;;;;;;;7.10;6.60;;;;;;;;;;4994531;28;20041;-69
2022/06/07 06:07:04;;;;;;;7.00;6.50;;;;;;;;;;4993147;28;20572;-69
2022/06/07 06:12:21;;;;;;;9.07;6.93;;;;;;;;;;4989716;28;20033;-69
2022/06/07 06:15:07;;;;;;;6.45;6.05;;;;;;;;;;4989576;28;20034;-69
2022/06/07 06:17:33;;;;;;;6.90;6.30;;;;;;;;;;4990997;28;20472;-69
2022/06/07 06:20:09;;;;;;;7.88;6.57;;;;;;;;;;4988242;28;20176;-69
2022/06/07 06:22:38;;;;;;;7.00;6.40;;;;;;;;;;4989321;28;20463;-69
2022/06/07 06:25:07;;;;;;;7.45;6.80;;;;;;;;;;4985800;28;20038;-69
2022/06/07 06:27:34;;;;;;;7.22;6.53;;;;;;;;;;4982739;28;20042;-69
2022/06/07 06:30:08;;;;;;;7.40;6.70;;;;;;;;;;4988766;28;20053;-69
2022/06/07 06:32:37;;;;;;;6.50;6.10;;;;;;;;;;5005320;28;20108;-69
2022/06/07 06:35:04;;;;;;;6.80;6.10;;;;;;;;;;5005640;28;20125;-69
2022/06/07 06:37:32;;;;;;;7.43;6.63;;;;;;;;;;4982103;28;20041;-69
2022/06/07 06:40:03;;;;;;;7.25;6.65;;;;;;;;;;4989547;28;20057;-69
2022/06/07 06:42:33;;;;;;;7.03;6.32;;;;;;;;;;4989133;28;20037;-69
2022/06/07 06:45:31;;;;;;;6.82;6.25;;;;;;;;;;4955906;28;20489;-69
2022/06/07 06:48:04;;;;;;;6.20;5.70;;;;;;;;;;4995858;28;20042;-69
2022/06/07 06:50:31;;;;;;;6.10;5.70;;;;;;;;;;4986353;28;20073;-69
2022/06/07 06:52:57;;;;;;;6.18;5.68;;;;;;;;;;4985470;28;20108;-68
2022/06/07 06:55:23;;;;;;;6.40;5.88;;;;;;;;;;4988935;28;20045;-68
2022/06/07 06:57:50;;;;;;;5.60;5.18;;;;;;;;;;4990882;28;20043;-68
2022/06/07 07:00:16;;;;;;;5.78;5.28;;;;;;;;;;5004295;28;20026;-69
2022/06/07 07:02:44;;;;;;;5.70;5.20;;;;;;;;;;4989009;28;20040;-69
2022/06/07 07:05:15;;;;;;;6.25;5.40;;;;;;;;;;4988959;28;20041;-69
2022/06/07 07:07:46;;;;;;;5.85;5.28;;;;;;;;;;4996114;28;20410;-69
2022/06/07 07:10:17;;;;;;;6.13;5.60;;;;;;;;;;4981326;28;20033;-69
2022/06/07 07:12:43;;;;;;;5.50;5.10;;;;;;;;;;4987972;28;20092;-69
2022/06/07 07:15:13;;;;;;;5.72;5.18;;;;;;;;;;4988600;28;20041;-69
2022/06/07 07:17:42;;;;;;;5.38;5.07;;;;;;;;;;4988152;28;20037;-68
2022/06/07 07:20:09;;;;;;;6.20;5.60;;;;;;;;;;4985847;28;20482;-69
2022/06/07 07:22:39;;;;;;;6.32;5.78;;;;;;;;;;4983885;28;20030;-69
2022/06/07 07:25:06;;;;;;;5.88;5.45;;;;;;;;;;4988164;28;20044;-68
2022/06/07 07:27:32;;;;;;;5.50;5.03;;;;;;;;;;4984539;28;20097;-68
2022/06/07 07:30:00;;;;;;;5.93;5.43;;;;;;;;;;4988795;28;20675;-68
2022/06/07 07:32:27;;;;;;;5.28;4.78;;;;;;;;;;4987134;28;20042;-68
2022/06/07 07:34:55;;;;;;;5.47;5.05;;;;;;;;;;4986939;28;20124;-68
2022/06/07 07:37:21;;;;;;;5.45;5.05;;;;;;;;;;4986134;28;20502;-68
2022/06/07 07:39:53;;;;;;;6.25;4.88;;;;;;;;;;4991478;28;20048;-68
2022/06/07 07:42:22;;;;;;;5.07;4.68;;;;;;;;;;5002825;28;20043;-68
2022/06/07 07:44:58;;;;;;;5.50;4.97;;;;;;;;;;4987018;28;20092;-68
2022/06/07 07:47:24;;;;;;;5.60;4.70;;;;;;;;;;4987311;28;20088;-68
2022/06/07 07:49:50;;;;;;;5.43;5.03;;;;;;;;;;4988437;28;20042;-68
2022/06/07 07:52:19;;;;;;;5.63;5.18;;;;;;;;;;4988085;28;20045;-68
2022/06/07 07:54:49;;;;;;;5.47;5.05;;;;;;;;;;4983934;28;20041;-68
2022/06/07 07:57:16;;;;;;;6.18;5.20;;;;;;;;;;4975235;28;20041;-68
2022/06/07 07:59:44;;;;;;;5.22;4.85;;;;;;;;;;4985718;28;20071;-69
2022/06/07 08:02:21;;;;;;;6.22;5.72;;;;;;;;;;4987673;28;20571;-69
2022/06/07 08:04:53;;;;;;;6.20;5.72;;;;;;;;;;4987297;28;20042;-69
2022/06/07 08:07:19;;;;;;;5.80;5.35;;;;;;;;;;4985679;28;20061;-69
2022/06/07 08:09:45;;;;;;;6.05;5.47;;;;;;;;;;5003691;28;20390;-69
2022/06/07 08:12:11;;;;;;;5.78;5.38;;;;;;;;;;5003495;28;20038;-69
2022/06/07 08:14:37;;;;;;;5.88;5.32;;;;;;;;;;5004097;28;20036;-69
2022/06/07 08:17:03;;;;;;;6.30;5.80;;;;;;;;;;5003837;28;20044;-69
2022/06/07 08:19:30;;;;;;;5.82;5.53;;;;;;;;;;5002875;28;20049;-69
2022/06/07 08:21:56;;;;;;;5.47;5.07;;;;;;;;;;5001094;28;20034;-69
2022/06/07 08:24:21;;;;;;;5.60;5.10;;;;;;;;;;5000895;28;20038;-69
2022/06/07 08:26:49;;;;;;;6.15;5.47;;;;;;;;;;5001541;28;20116;-69
2022/06/07 08:29:16;;;;;;;5.97;5.40;;;;;;;;;;5002255;28;20489;-69
2022/06/07 08:31:42;;;;;;;6.00;5.50;;;;;;;;;;4998800;28;20717;-69
2022/06/07 08:39:39;;;;;;;5.80;5.30;;;;;;;;;;5000866;28;20037;-69
2022/06/07 08:42:31;;;;;;;5.35;5.00;;;;;;;;;;5003095;28;20069;-69
2022/06/07 08:45:02;;;;;;;5.53;5.13;;;;;;;;;;5002104;28;20065;-69
2022/06/07 08:47:42;;;;;;;5.60;5.20;;;;;;;;;;5004396;28;20132;-69
2022/06/07 08:50:25;;;;;;;6.03;5.45;;;;;;;;;;5007224;28;20037;-69
2022/06/07 08:52:55;;;;;;;6.25;5.75;;;;;;;;;;5008234;28;20037;-69
2022/06/07 08:55:32;;;;;;;5.50;5.10;;;;;;;;;;5005790;28;20034;-68
2022/06/07 08:58:20;;;;;;;6.18;5.50;;;;;;;;;;5006160;28;21654;-69
2022/06/07 09:00:50;;;;;;;5.65;5.00;;;;;;;;;;5004465;28;20053;-69
2022/06/07 09:03:34;;;;;;;5.80;5.43;;;;;;;;;;5005227;28;20030;-69
2022/06/07 09:06:03;;;;;;;5.93;5.43;;;;;;;;;;5006830;28;20096;-69
2022/06/07 09:08:49;;;;;;;5.68;5.35;;;;;;;;;;5004728;28;20045;-69
2022/06/07 09:14:17;;;;;;;5.63;5.18;;;;;;;;;;5004835;28;20034;-69
2022/06/07 09:16:44;;;;;;;5.18;4.88;;;;;;;;;;5005399;28;20046;-68
2022/06/07 09:19:19;;;;;;;5.70;5.38;;;;;;;;;;5007746;28;20516;-69
2022/06/07 09:21:46;;;;;;;5.38;4.90;;;;;;;;;;5006380;28;20446;-69
2022/06/07 09:24:24;;;;;;;4.70;4.40;;;;;;;;;;5009076;28;20592;-69
2022/06/07 09:26:50;;;;;;;4.90;4.57;;;;;;;;;;5003250;28;20034;-69
2022/06/07 09:29:19;;;;;;;5.68;4.45;;;;;;;;;;5001652;28;20038;-68
2022/06/07 09:31:47;;;;;;;4.75;4.35;;;;;;;;;;5002335;28;20453;-69
2022/06/07 09:34:25;;;;;;;4.28;4.00;;;;;;;;;;5006115;28;20038;-68
2022/06/07 09:36:57;;;;;;;;;;;;;;;;;;5006480;28;20037;-69
2022/06/07 09:39:31;;;;;;;4.90;4.60;;;;;;;;;;5006700;28;19917;-69
2022/06/07 09:42:22;;;;;;;5.10;4.80;;;;;;;;;;5008459;28;20124;-68
2022/06/07 09:44:55;;;;;;;5.32;4.90;;;;;;;;;;5004955;28;20493;-68
2022/06/07 09:47:25;;;;;;;4.97;4.60;;;;;;;;;;5006470;28;20033;-68
2022/06/07 09:50:04;;;;;;;5.05;4.65;;;;;;;;;;5006144;28;20034;-69
2022/06/07 09:52:45;;;;;;;5.97;4.90;;;;;;;;;;5008204;28;20042;-69
2022/06/07 09:55:42;;;;;;;5.00;4.68;;;;;;;;;;5008406;28;20041;-69
2022/06/07 09:58:50;;;;;;;7.75;5.32;;;;;;;;;;5005012;28;20472;-69
2022/06/07 10:01:38;;;;;;;5.28;4.90;;;;;;;;;;5001802;28;20460;-68
2022/06/07 10:04:09;;;;;;;5.07;4.78;;;;;;;;;;5004579;28;20042;-69
2022/06/07 10:06:43;;;;;;;5.45;5.05;;;;;;;;;;5004434;28;20062;-69
2022/06/07 10:09:24;;;;;;;5.30;5.00;;;;;;;;;;5003196;28;20034;-69
2022/06/07 10:11:55;;;;;;;5.03;4.70;;;;;;;;;;5005576;28;20541;-69
2022/06/07 10:14:45;;;;;;;5.18;4.78;;;;;;;;;;5005879;28;20042;-69
2022/06/07 10:17:14;;;;;;;5.50;5.00;;;;;;;;;;5002901;28;20393;-69
2022/06/07 10:20:12;;;;;;;5.00;4.60;;;;;;;;;;5004546;28;20110;-69
2022/06/07 10:22:46;;;;;;;4.95;4.43;;;;;;;;;;5004757;28;20030;-69
2022/06/07 10:25:18;;;;;;;5.03;4.72;;;;;;;;;;5004679;28;20069;-69
2022/06/07 10:28:05;;;;;;;4.95;4.65;;;;;;;;;;5005702;28;20025;-69
2022/06/07 10:30:43;;;;;;;5.40;4.95;;;;;;;;;;5005551;28;20121;-69
2022/06/07 10:33:42;;;;;;;6.88;5.35;;;;;;;;;;5006218;28;20064;-68
2022/06/07 10:36:26;;;;;;;5.93;4.80;;;;;;;;;;5003397;28;20040;-69
2022/06/07 10:38:58;;;;;;;6.88;4.63;;;;;;;;;;5005863;28;20037;-68
2022/06/07 10:42:00;;;;;;;5.22;4.93;;;;;;;;;;5005791;28;20030;-69
2022/06/07 10:44:35;;;;;;;5.50;5.10;;;;;;;;;;4990832;28;20057;-69
2022/06/07 10:47:19;;;;;;;5.90;5.40;;;;;;;;;;5003672;28;20025;-68
2022/06/07 10:50:22;;;;;;;5.30;4.90;;;;;;;;;;5006579;28;20121;-69
2022/06/07 10:52:55;;;;;;;5.07;4.78;;;;;;;;;;5003242;28;20057;-68
2022/06/07 10:55:35;;;;;;;5.80;4.57;;;;;;;;;;5013791;28;20060;-68
2022/06/07 10:58:18;;;;;;;5.05;4.75;;;;;;;;;;5008519;28;20196;-68
2022/06/07 11:00:50;;;;;;;4.47;4.18;;;;;;;;;;5000546;28;20041;-68
2022/06/07 11:03:33;;;;;;;4.90;4.57;;;;;;;;;;5005558;28;20514;-68
2022/06/07 11:09:43;;;;;;;4.68;4.35;;;;;;;;;;5001426;28;20124;-68
2022/06/07 11:12:14;;;;;;;5.10;4.70;;;;;;;;;;4944317;29;20056;-68
2022/06/07 11:15:13;;;;;;;5.45;4.93;;;;;;;;;;4942874;28;20815;-68
2022/06/07 11:17:55;;;;;;;5.32;4.93;;;;;;;;;;5017944;22;20037;-65
2022/06/07 11:20:29;;;;;;;5.53;5.18;;;;;;;;;;5037016;28;20047;-66
2022/06/07 11:23:05;;;;;;;5.30;5.00;;;;;;;;;;5044235;28;20407;-66
2022/06/07 11:25:33;;;;;;;5.10;4.70;;;;;;;;;;5044687;28;20427;-65
2022/06/07 11:28:11;;;;;;;5.00;4.65;;;;;;;;;;5041223;28;20049;-66
2022/06/07 11:30:37;;;;;;;4.93;4.63;;;;;;;;;;5042900;28;20083;-67
2022/06/07 11:33:25;;;;;;;5.10;4.80;;;;;;;;;;5045725;28;20044;-67
2022/06/07 11:36:06;;;;;;;5.13;4.83;;;;;;;;;;5045294;28;20507;-66
2022/06/07 11:38:35;;;;;;;5.40;5.00;;;;;;;;;;5044120;28;20028;-65
2022/06/07 11:41:38;;;;;;;5.35;4.95;;;;;;;;;;5045586;28;20132;-66
2022/06/07 11:44:10;;;;;;;5.43;5.13;;;;;;;;;;5045248;28;20479;-66
2022/06/07 11:46:35;;;;;;;4.75;4.45;;;;;;;;;;5041543;28;20086;-66
2022/06/07 11:49:24;;;;;;;5.40;5.07;;;;;;;;;;5044534;28;20037;-66
2022/06/07 11:52:11;;;;;;;5.60;5.20;;;;;;;;;;5020000;28;20047;-66
2022/06/07 11:54:57;;;;;;;5.13;4.63;;;;;;;;;;5042958;28;20032;-66
2022/06/07 11:57:32;;;;;;;4.95;4.65;;;;;;;;;;5041418;28;20052;-67
2022/06/07 12:00:19;;;;;;;4.95;4.65;;;;;;;;;;5044147;28;20065;-66
2022/06/07 12:02:54;;;;;;;5.78;4.55;;;;;;;;;;5045083;28;20044;-67
2022/06/07 12:05:28;;;;;;;4.97;4.60;;;;;;;;;;5043815;28;20041;-67
2022/06/07 12:07:58;;;;;;;5.30;4.90;;;;;;;;;;5045451;28;20033;-66
2022/06/07 12:10:35;;;;;;;6.03;4.72;;;;;;;;;;5046662;28;20052;-66
2022/06/07 12:13:15;;;;;;;5.03;4.63;;;;;;;;;;5045394;28;20094;-66
2022/06/07 12:15:48;;;;;;;5.20;4.80;;;;;;;;;;5041965;28;20040;-66
2022/06/07 12:18:24;;;;;;;5.00;4.70;;;;;;;;;;5046349;28;20036;-67
2022/06/07 12:20:57;;;;;;;5.28;4.88;;;;;;;;;;5046217;28;20033;-66
2022/06/07 12:23:25;;;;;;;5.57;5.18;;;;;;;;;;5046089;28;20037;-67
2022/06/07 12:26:18;;;;;;;5.35;5.05;;;;;;;;;;5050033;28;20036;-67
2022/06/07 12:29:07;;;;;;;5.43;5.07;;;;;;;;;;5045754;28;20045;-66
2022/06/07 12:31:44;;;;;;;6.35;5.30;;;;;;;;;;5046998;28;20067;-67
2022/06/07 12:34:34;;;;;;;5.93;5.15;;;;;;;;;;5049222;28;20056;-67
2022/06/07 12:37:03;;;;;;;5.60;5.30;;;;;;;;;;5050079;28;20091;-66
2022/06/07 12:39:31;;;;;;;5.60;5.30;;;;;;;;;;5047798;28;20037;-66
2022/06/07 12:42:12;;;;;;;5.63;5.22;;;;;;;;;;5044419;28;20418;-66
2022/06/07 12:44:43;;;;;;;5.10;4.80;;;;;;;;;;5048797;28;20041;-66
2022/06/07 12:47:34;;;;;;;5.18;4.88;;;;;;;;;;5046511;28;20076;-67
2022/06/07 12:50:03;;;;;;;5.47;5.18;;;;;;;;;;5048755;28;20105;-66
2022/06/07 12:52:31;;;;;;;5.20;4.80;;;;;;;;;;5049424;28;20071;-66
2022/06/07 12:55:07;;;;;;;5.50;5.10;;;;;;;;;;5048911;28;20514;-66
2022/06/07 12:57:54;;;;;;;5.00;4.70;;;;;;;;;;5046567;28;20165;-67
2022/06/07 13:00:25;;;;;;;5.10;4.80;;;;;;;;;;5047924;28;20516;-66
2022/06/07 13:02:55;;;;;;;4.82;4.50;;;;;;;;;;5046695;28;20036;-66
2022/06/07 13:05:33;;;;;;;5.00;4.70;;;;;;;;;;5045493;28;20044;-66
2022/06/07 13:08:03;;;;;;;4.93;4.53;;;;;;;;;;5048675;28;20037;-67
2022/06/07 13:10:33;;;;;;;5.30;4.80;;;;;;;;;;5049326;28;20036;-67
2022/06/07 13:13:01;;;;;;;5.30;4.90;;;;;;;;;;5049095;28;20036;-67
2022/06/07 13:15:31;;;;;;;5.15;4.78;;;;;;;;;;5043852;28;20071;-67
2022/06/07 13:18:24;;;;;;;5.28;4.80;;;;;;;;;;5048320;28;20021;-67
2022/06/07 13:21:05;;;;;;;5.40;4.93;;;;;;;;;;5046755;28;20036;-66
2022/06/07 13:23:40;;;;;;;4.72;4.53;;;;;;;;;;5042642;28;20087;-67
2022/06/07 13:26:11;;;;;;;5.43;4.95;;;;;;;;;;5049712;28;20054;-66
2022/06/07 13:28:37;;;;;;;4.70;4.40;;;;;;;;;;5048854;28;20091;-67
2022/06/07 13:31:40;;;;;;;5.90;4.72;;;;;;;;;;5046132;28;20021;-67
2022/06/07 13:34:19;;;;;;;5.07;4.68;;;;;;;;;;5030995;28;20044;-67
2022/06/07 13:36:49;;;;;;;5.35;4.95;;;;;;;;;;5046503;28;20048;-67
2022/06/07 13:39:24;;;;;;;5.30;4.90;;;;;;;;;;5048437;28;20073;-67
2022/06/07 13:41:54;;;;;;;5.18;4.78;;;;;;;;;;5048197;28;20025;-67
2022/06/07 13:44:40;;;;;;;5.00;4.60;;;;;;;;;;5041967;28;20043;-67
2022/06/07 13:47:21;;;;;;;4.32;4.10;;;;;;;;;;5044860;28;20041;-67
2022/06/07 13:55:50;;;;;;;4.50;4.10;;;;;;;;;;5048304;28;20451;-67
2022/06/07 13:58:17;;;;;;;4.35;4.15;;;;;;;;;;5044517;28;20109;-67
2022/06/07 14:00:44;;;;;;;4.38;4.00;;;;;;;;;;5046547;28;20048;-67
2022/06/07 14:03:25;;;;;;;4.47;4.28;;;;;;;;;;5048059;28;20446;-67
2022/06/07 14:05:51;;;;;;;4.28;3.97;;;;;;;;;;5047154;28;20025;-67
2022/06/07 14:08:18;;;;;;;4.20;3.90;;;;;;;;;;5042238;28;20040;-66
2022/06/07 14:10:44;;;;;;;4.50;4.10;;;;;;;;;;5047973;28;20111;-67
2022/06/07 14:13:10;;;;;;;4.70;4.30;;;;;;;;;;5045019;28;20041;-66
2022/06/07 14:15:37;;;;;;;4.50;4.30;;;;;;;;;;5047614;28;20035;-66
2022/06/07 14:18:08;;;;;;;5.28;4.70;;;;;;;;;;5045649;28;20051;-66
2022/06/07 14:20:37;;;;;;;4.95;4.65;;;;;;;;;;5048051;28;20032;-66
2022/06/07 14:23:03;;;;;;;4.90;4.60;;;;;;;;;;5048011;28;20613;-66
2022/06/07 14:25:28;;;;;;;5.10;4.80;;;;;;;;;;5045838;28;20538;-66
2022/06/07 14:27:54;;;;;;;4.68;4.40;;;;;;;;;;5047772;28;20738;-66
2022/06/07 14:30:22;;;;;;;4.88;4.68;;;;;;;;;;5047819;28;20067;-66
2022/06/07 14:32:51;;;;;;;4.40;4.20;;;;;;;;;;5047217;28;20056;-66
2022/06/07 14:35:23;;;;;;;4.32;4.05;;;;;;;;;;5046458;28;20033;-66
2022/06/07 14:37:51;;;;;;;5.63;4.32;;;;;;;;;;5046014;28;20060;-66
2022/06/07 14:40:27;;;;;;;5.55;5.05;;;;;;;;;;5047498;28;20044;-66
2022/06/07 14:42:54;;;;;;;5.20;4.78;;;;;;;;;;5043736;28;20123;-66
2022/06/07 14:45:21;;;;;;;4.72;4.40;;;;;;;;;;5047218;28;20025;-67
2022/06/07 14:47:48;;;;;;;4.50;4.25;;;;;;;;;;5045180;28;20151;-66
2022/06/07 14:50:21;;;;;;;4.88;4.40;;;;;;;;;;5045512;28;20032;-66
2022/06/07 14:52:48;;;;;;;4.82;4.53;;;;;;;;;;5047396;28;20116;-66
2022/06/07 14:55:18;;;;;;;4.88;4.57;;;;;;;;;;5047412;28;20032;-66
2022/06/07 14:57:47;;;;;;;5.10;4.80;;;;;;;;;;5046973;28;20055;-66
2022/06/07 15:00:18;;;;;;;;;;;;;;;;;;5043778;28;20048;-66
2022/06/07 15:02:46;;;;;;;5.30;4.90;;;;;;;;;;5046221;28;19913;-66
2022/06/07 15:05:11;;;;;;;5.13;4.80;;;;;;;;;;5047282;28;20033;-66
2022/06/07 15:07:51;;;;;;;5.03;4.70;;;;;;;;;;5037552;28;20696;-66
2022/06/07 15:10:20;;;;;;;4.88;4.57;;;;;;;;;;5046794;28;20033;-66
2022/06/07 15:12:46;;;;;;;4.80;4.50;;;;;;;;;;5046102;28;20083;-66
2022/06/07 15:15:12;;;;;;;4.80;4.50;;;;;;;;;;5046927;28;20040;-66
2022/06/07 15:17:46;;;;;;;4.88;4.47;;;;;;;;;;5044200;28;20110;-66
2022/06/07 15:20:23;;;;;;;4.95;4.65;;;;;;;;;;5044046;28;20028;-68
2022/06/07 15:22:50;;;;;;;5.47;4.97;;;;;;;;;;5046463;28;20182;-67
2022/06/07 15:25:19;;;;;;;5.30;4.80;;;;;;;;;;5046317;28;20047;-67
2022/06/07 15:27:45;;;;;;;4.90;4.60;;;;;;;;;;5043638;28;20519;-67
2022/06/07 15:30:12;;;;;;;5.00;4.70;;;;;;;;;;5046575;28;20032;-67
2022/06/07 15:32:38;;;;;;;4.95;4.60;;;;;;;;;;5046064;28;20029;-67
2022/06/07 15:35:10;;;;;;;4.85;4.55;;;;;;;;;;5041774;28;20070;-67
2022/06/07 15:37:38;;;;;;;4.50;4.20;;;;;;;;;;5045725;28;20029;-66